Goldens Bridge, New York
Current Conditions -  °F | °C
As of 10:53 AM on Thursday 29 Jan 2015 (Local Time) from KDXR Reporting Station
Clear Clear  
Wind Chill: 16°   Ceiling: Unl
Heat Index: 24°   Visibility: 10mi
Dew Point:   Wind: 7mph
Humidity: 35%   Direction: 360°N
Pressure: 30.28"   Gusts: NA
Location:  41.29°N, 73.68°W
Report Text: KDXR 291553Z 36006KT 10SM CLR M04/M18 A3028 RMK AO2 SLP261 T10441178
Loading
Personal Weather Stations






























Interactive Weather Map New forecast layout! Learn more

10-Day Weather Forecast

Advertisements
Track Severe Weather on mobile